Time;durP1;ratioP1;P1;durP2;ratioP2;P2;SDS_P1;SDS_P2;PMS_P1;PMS_P2;Temp;Humidity;BMP_temperature;BMP_pressure;BME280_temperature;BME280_humidity;BME280_pressure;Samples;Min_cycle;Max_cycle;Signal;HPM_P1;HPM_P2
2024/01/23 00:02:11;;;;;;;23.65;3.40;;;6.00;99.90;;;;;;5071662;28;20698;-66
2024/01/23 00:04:37;;;;;;;19.33;3.17;;;6.10;99.90;;;;;;5071997;28;20100;-66
2024/01/23 00:07:02;;;;;;;22.17;3.05;;;6.20;99.90;;;;;;5054457;28;20246;-66
2024/01/23 00:09:28;;;;;;;18.90;2.65;;;6.10;99.90;;;;;;5027596;28;20051;-67
2024/01/23 00:11:54;;;;;;;20.77;2.80;;;6.20;99.90;;;;;;5057140;28;20035;-67
2024/01/23 00:14:20;;;;;;;23.80;3.05;;;6.20;99.90;;;;;;5075205;28;20042;-67
2024/01/23 00:16:46;;;;;;;17.00;2.42;;;6.10;99.90;;;;;;5075038;28;20402;-67
2024/01/23 00:19:12;;;;;;;20.85;2.35;;;6.20;99.90;;;;;;5074767;28;20032;-66
2024/01/23 00:21:37;;;;;;;19.77;2.20;;;6.20;99.90;;;;;;5091388;28;20047;-66
2024/01/23 00:24:06;;;;;;;19.33;2.15;;;6.20;99.90;;;;;;5058414;28;20069;-66
2024/01/23 00:26:31;;;;;;;29.73;2.95;;;6.30;99.90;;;;;;5075654;28;20524;-66
2024/01/23 00:28:57;;;;;;;27.45;2.60;;;6.30;99.90;;;;;;5074372;28;20043;-66
2024/01/23 00:31:23;;;;;;;22.30;2.78;;;6.40;99.90;;;;;;5046795;28;20031;-66
2024/01/23 00:33:48;;;;;;;34.30;3.17;;;6.30;99.90;;;;;;5074681;28;20042;-66
2024/01/23 00:36:14;;;;;;;22.27;2.97;;;6.30;99.90;;;;;;5058568;28;20048;-67
2024/01/23 00:38:40;;;;;;;22.70;2.50;;;6.30;99.90;;;;;;5075181;28;21150;-66
2024/01/23 00:41:06;;;;;;;21.73;2.60;;;6.30;99.90;;;;;;5074587;28;20301;-67
2024/01/23 00:43:31;;;;;;;17.67;2.35;;;6.30;99.90;;;;;;5074419;28;20071;-66
2024/01/23 00:45:57;;;;;;;26.77;3.70;;;6.30;99.90;;;;;;5057414;28;20366;-67
2024/01/23 00:48:23;;;;;;;25.02;3.40;;;6.30;99.90;;;;;;5073793;28;20405;-66
2024/01/23 00:50:49;;;;;;;26.45;2.83;;;6.30;99.90;;;;;;5041438;28;20047;-67
2024/01/23 00:53:15;;;;;;;20.38;2.72;;;6.40;99.90;;;;;;5074483;28;20035;-67
2024/01/23 00:55:40;;;;;;;25.52;2.78;;;6.50;99.90;;;;;;5075536;28;20032;-66
2024/01/23 00:58:06;;;;;;;21.67;2.55;;;6.50;99.90;;;;;;5074927;28;20043;-67
2024/01/23 01:00:32;;;;;;;28.95;2.90;;;6.50;99.90;;;;;;5058271;28;20047;-66
2024/01/23 01:02:58;;;;;;;21.52;2.67;;;6.40;99.90;;;;;;5058156;28;20242;-66
2024/01/23 01:05:23;;;;;;;23.15;2.70;;;6.30;99.90;;;;;;5074184;28;20666;-66
2024/01/23 01:07:49;;;;;;;21.67;3.10;;;6.40;99.90;;;;;;5057656;28;20055;-66
2024/01/23 01:10:15;;;;;;;21.48;2.88;;;6.40;99.90;;;;;;5058099;28;20526;-67
2024/01/23 01:12:41;;;;;;;19.85;2.63;;;6.50;99.90;;;;;;5057986;28;20073;-67
2024/01/23 01:15:07;;;;;;;21.25;2.35;;;6.50;99.90;;;;;;5074127;28;20102;-67
2024/01/23 01:17:33;;;;;;;25.73;3.83;;;6.50;99.90;;;;;;5062229;28;20389;-66
2024/01/23 01:19:59;;;;;;;16.42;2.47;;;6.60;99.90;;;;;;5073256;28;20047;-67
2024/01/23 01:22:25;;;;;;;25.83;3.03;;;6.60;99.90;;;;;;5072872;28;20573;-66
2024/01/23 01:24:50;;;;;;;21.80;2.65;;;6.60;99.90;;;;;;5090994;28;20120;-67
2024/01/23 01:27:16;;;;;;;23.33;2.72;;;6.50;99.90;;;;;;5056299;28;20252;-67
2024/01/23 01:29:42;;;;;;;24.52;3.05;;;6.40;99.90;;;;;;5077512;28;20071;-67
2024/01/23 01:32:08;;;;;;;18.25;2.53;;;6.40;99.90;;;;;;5073245;28;20312;-67
2024/01/23 01:34:34;;;;;;;20.55;2.67;;;6.30;99.90;;;;;;5073280;28;20468;-68
2024/01/23 01:36:59;;;;;;;23.77;2.40;;;6.30;99.90;;;;;;5106549;27;20266;-67
2024/01/23 01:39:25;;;;;;;27.20;3.95;;;6.30;99.90;;;;;;5092339;28;20038;-67
2024/01/23 01:41:55;;;;;;;19.13;2.70;;;6.30;99.90;;;;;;5074467;28;20149;-67
2024/01/23 01:44:21;;;;;;;19.25;2.60;;;6.20;99.90;;;;;;5072118;28;20446;-69
2024/01/23 01:46:48;;;;;;;23.83;3.30;;;6.30;99.90;;;;;;5055345;28;20041;-66
2024/01/23 01:49:16;;;;;;;25.27;3.25;;;6.20;99.90;;;;;;5073346;28;20126;-67
2024/01/23 01:51:42;;;;;;;23.15;2.70;;;6.30;99.90;;;;;;5039088;28;20154;-66
2024/01/23 01:54:08;;;;;;;26.48;3.17;;;6.20;99.90;;;;;;5106213;27;20039;-67
2024/01/23 01:56:35;;;;;;;30.95;3.97;;;6.30;99.90;;;;;;5056887;28;20481;-67
2024/01/23 01:59:01;;;;;;;22.70;3.15;;;6.20;99.90;;;;;;5073129;28;20380;-66
2024/01/23 02:01:27;;;;;;;21.27;2.75;;;6.20;99.90;;;;;;5072289;28;20046;-67
2024/01/23 02:03:53;;;;;;;23.90;2.85;;;6.10;99.90;;;;;;5055527;28;20610;-67
2024/01/23 02:06:20;;;;;;;26.48;3.35;;;6.10;99.90;;;;;;5072734;28;20039;-68
2024/01/23 02:08:48;;;;;;;27.73;3.28;;;6.10;99.90;;;;;;5073075;28;20471;-67
2024/01/23 02:11:14;;;;;;;28.02;3.38;;;6.10;99.90;;;;;;5072419;28;20043;-66
2024/01/23 02:13:40;;;;;;;26.75;3.28;;;6.20;99.90;;;;;;5055011;28;20489;-66
2024/01/23 02:16:07;;;;;;;31.08;3.38;;;6.10;99.90;;;;;;5091259;28;20043;-67
2024/01/23 02:18:33;;;;;;;29.70;3.63;;;6.10;99.90;;;;;;5072764;28;21373;-68
2024/01/23 02:20:59;;;;;;;26.30;2.55;;;6.00;99.90;;;;;;5090762;28;20127;-67
2024/01/23 02:23:28;;;;;;;27.60;3.30;;;6.00;99.90;;;;;;5059531;28;20035;-66
2024/01/23 02:25:54;;;;;;;23.27;3.60;;;6.00;99.90;;;;;;5072455;28;20387;-67
2024/01/23 02:28:21;;;;;;;21.95;2.78;;;6.00;99.90;;;;;;5071881;28;20470;-66
2024/01/23 02:30:47;;;;;;;22.83;2.92;;;6.10;99.90;;;;;;5055386;28;20040;-67
2024/01/23 02:33:13;;;;;;;18.00;2.70;;;6.10;99.90;;;;;;5071531;28;20043;-67
2024/01/23 02:35:39;;;;;;;27.98;3.10;;;6.10;99.90;;;;;;5059568;28;20047;-67
2024/01/23 02:38:05;;;;;;;22.80;3.03;;;6.10;99.90;;;;;;5072739;28;20050;-67
2024/01/23 02:40:31;;;;;;;17.52;2.83;;;6.10;99.90;;;;;;5072206;28;20473;-68
2024/01/23 02:42:57;;;;;;;26.88;3.75;;;6.10;99.90;;;;;;5054898;28;20465;-68
2024/01/23 02:45:23;;;;;;;22.10;2.85;;;6.20;99.90;;;;;;5051449;28;20151;-68
2024/01/23 02:47:48;;;;;;;28.23;4.10;;;6.20;99.90;;;;;;5068682;28;20083;-68
2024/01/23 02:50:14;;;;;;;28.48;2.97;;;6.30;99.90;;;;;;5050933;28;20040;-68
2024/01/23 02:52:40;;;;;;;22.98;3.10;;;6.30;99.90;;;;;;5068794;28;20379;-68
2024/01/23 02:55:06;;;;;;;30.25;4.07;;;6.30;99.90;;;;;;5068350;28;20071;-67
2024/01/23 02:57:31;;;;;;;28.85;3.78;;;6.40;99.90;;;;;;5067504;28;20171;-68
2024/01/23 02:59:57;;;;;;;24.73;2.97;;;6.50;99.90;;;;;;5051008;28;20039;-67
2024/01/23 03:02:23;;;;;;;23.35;4.15;;;6.50;99.90;;;;;;5068477;28;20060;-67
2024/01/23 03:04:49;;;;;;;20.35;2.88;;;6.50;99.90;;;;;;5068531;28;20251;-67
2024/01/23 03:07:17;;;;;;;34.03;3.88;;;6.60;99.90;;;;;;5070515;28;20067;-68
2024/01/23 03:09:43;;;;;;;29.50;4.28;;;6.60;99.90;;;;;;5067977;28;20040;-67
2024/01/23 03:12:17;;;;;;;30.60;3.60;;;6.60;99.90;;;;;;5068528;28;20102;-68
2024/01/23 03:14:43;;;;;;;;;;;6.70;99.90;;;;;;5070019;28;20075;-67
2024/01/23 03:17:14;;;;;;;30.48;4.13;;;6.60;99.90;;;;;;5101403;27;19923;-67
2024/01/23 03:19:41;;;;;;;26.02;3.50;;;6.70;99.90;;;;;;5052287;28;20046;-67
2024/01/23 03:22:07;;;;;;;30.20;4.32;;;6.60;99.90;;;;;;5050963;28;20052;-68
2024/01/23 03:24:36;;;;;;;31.77;3.70;;;6.50;99.90;;;;;;5067523;28;20393;-68
2024/01/23 03:27:03;;;;;;;31.92;3.28;;;6.50;99.90;;;;;;5051331;28;20056;-67
2024/01/23 03:29:29;;;;;;;35.33;4.68;;;6.50;99.90;;;;;;5101522;27;20066;-67
2024/01/23 03:31:55;;;;;;;28.85;3.65;;;6.60;99.90;;;;;;5068392;28;20427;-68
2024/01/23 03:34:21;;;;;;;27.85;4.00;;;6.60;99.90;;;;;;5051491;28;20075;-67
2024/01/23 03:36:47;;;;;;;27.80;4.07;;;6.60;99.90;;;;;;5069646;28;20210;-68
2024/01/23 03:39:12;;;;;;;21.75;3.45;;;6.60;99.90;;;;;;5068515;28;20032;-68
2024/01/23 03:41:38;;;;;;;24.80;3.67;;;6.60;99.90;;;;;;5067759;28;20040;-68
2024/01/23 03:44:07;;;;;;;27.23;4.25;;;6.60;99.90;;;;;;5101065;27;20056;-67
2024/01/23 03:46:33;;;;;;;30.40;4.55;;;6.70;99.90;;;;;;5068096;28;20535;-68
2024/01/23 03:48:59;;;;;;;28.63;4.07;;;6.80;99.90;;;;;;5055886;28;20119;-67
2024/01/23 03:51:26;;;;;;;27.10;3.40;;;6.90;99.90;;;;;;5067283;28;20039;-69
2024/01/23 03:53:52;;;;;;;27.15;4.32;;;6.80;99.90;;;;;;5038020;28;20028;-66
2024/01/23 03:56:18;;;;;;;25.27;3.90;;;6.90;99.90;;;;;;5067484;28;20472;-68
2024/01/23 03:58:45;;;;;;;28.67;4.10;;;6.90;99.90;;;;;;5068529;28;20384;-68
2024/01/23 04:01:10;;;;;;;28.73;3.35;;;6.90;99.90;;;;;;5068506;28;20078;-68
2024/01/23 04:03:36;;;;;;;31.08;3.88;;;7.00;99.90;;;;;;5068278;28;20592;-67
2024/01/23 04:06:02;;;;;;;34.35;4.70;;;6.90;99.90;;;;;;5066933;28;20051;-67
2024/01/23 04:08:27;;;;;;;25.27;3.60;;;7.00;99.90;;;;;;5083923;28;20036;-67
2024/01/23 04:10:54;;;;;;;24.58;3.97;;;7.00;99.90;;;;;;5069547;28;20949;-67
2024/01/23 04:13:19;;;;;;;29.42;3.42;;;7.10;99.90;;;;;;5054415;28;20047;-67
2024/01/23 04:15:45;;;;;;;33.33;4.47;;;7.10;99.90;;;;;;5036507;28;20048;-67
2024/01/23 04:18:11;;;;;;;31.15;4.13;;;7.00;99.90;;;;;;5067693;28;20077;-68
2024/01/23 04:20:38;;;;;;;28.80;4.07;;;7.10;99.90;;;;;;5039652;28;20044;-67
2024/01/23 04:23:03;;;;;;;32.30;4.25;;;7.10;99.90;;;;;;5066757;28;20055;-67
2024/01/23 04:25:29;;;;;;;39.90;4.43;;;7.20;99.90;;;;;;5067453;28;20054;-67
2024/01/23 04:27:57;;;;;;;30.95;4.60;;;7.10;99.90;;;;;;5066821;28;20610;-68
2024/01/23 04:30:23;;;;;;;23.67;4.18;;;7.10;99.90;;;;;;5101124;27;20036;-66
2024/01/23 04:32:49;;;;;;;26.95;3.55;;;7.10;99.90;;;;;;5067742;28;20086;-68
2024/01/23 04:35:15;;;;;;;33.70;4.50;;;7.10;99.90;;;;;;5067159;28;20393;-67
2024/01/23 04:37:41;;;;;;;19.63;3.78;;;7.10;99.90;;;;;;5070317;28;20376;-68
2024/01/23 04:40:08;;;;;;;24.83;3.85;;;7.10;99.90;;;;;;5055668;28;20377;-66
2024/01/23 04:42:37;;;;;;;30.63;4.88;;;7.20;99.90;;;;;;5050547;28;20671;-67
2024/01/23 04:45:04;;;;;;;27.63;3.90;;;7.20;99.90;;;;;;5037984;28;20056;-67
2024/01/23 04:47:30;;;;;;;34.67;4.93;;;7.20;99.90;;;;;;5032173;28;20316;-67
2024/01/23 04:49:55;;;;;;;30.08;4.93;;;7.20;99.90;;;;;;5015332;28;20402;-68
2024/01/23 04:52:21;;;;;;;28.90;3.88;;;7.20;99.90;;;;;;5032152;28;20507;-67
2024/01/23 04:54:47;;;;;;;34.33;4.35;;;7.20;99.90;;;;;;5032401;28;20037;-67
2024/01/23 04:57:14;;;;;;;34.72;4.97;;;7.20;99.90;;;;;;5036279;28;20051;-67
2024/01/23 04:59:40;;;;;;;26.83;4.53;;;7.20;99.90;;;;;;5035342;28;20048;-68
2024/01/23 05:02:06;;;;;;;30.67;4.32;;;7.20;99.90;;;;;;5035095;28;20555;-67
2024/01/23 05:04:32;;;;;;;32.53;5.55;;;7.30;99.90;;;;;;5019414;28;20040;-67
2024/01/23 05:06:57;;;;;;;34.55;3.97;;;7.20;99.90;;;;;;5036681;28;20044;-67
2024/01/23 05:09:24;;;;;;;31.30;4.78;;;7.20;99.90;;;;;;5019562;28;20726;-67
2024/01/23 05:11:50;;;;;;;31.52;4.68;;;7.20;99.90;;;;;;5019119;28;20070;-67
2024/01/23 05:14:17;;;;;;;43.22;6.07;;;7.20;99.90;;;;;;5036182;28;20131;-68
2024/01/23 05:16:43;;;;;;;36.30;5.10;;;7.20;99.90;;;;;;5035667;28;20767;-68
2024/01/23 05:19:09;;;;;;;40.63;5.72;;;7.20;99.90;;;;;;5037952;28;20045;-68
2024/01/23 05:21:35;;;;;;;36.90;4.85;;;7.20;99.90;;;;;;5036524;28;20040;-68
2024/01/23 05:24:02;;;;;;;31.80;4.30;;;7.20;99.90;;;;;;5019352;28;20399;-68
2024/01/23 05:26:29;;;;;;;46.75;6.68;;;7.20;99.90;;;;;;5031929;28;20274;-67
2024/01/23 05:28:54;;;;;;;43.38;5.25;;;7.30;99.90;;;;;;5038758;28;20538;-68
2024/01/23 05:31:20;;;;;;;34.03;4.60;;;7.30;99.90;;;;;;5020288;28;20052;-68
2024/01/23 05:33:46;;;;;;;40.55;5.20;;;7.30;99.90;;;;;;5019097;28;20780;-68
2024/01/23 05:36:12;;;;;;;35.72;4.80;;;7.30;99.90;;;;;;5034197;28;20048;-67
2024/01/23 05:38:38;;;;;;;48.15;6.47;;;7.30;99.90;;;;;;5016854;28;20222;-68
2024/01/23 05:41:04;;;;;;;36.58;4.93;;;7.30;99.90;;;;;;5036760;28;20569;-68
2024/01/23 05:43:30;;;;;;;36.63;5.78;;;7.30;99.90;;;;;;5038684;28;20095;-67
2024/01/23 05:45:56;;;;;;;36.65;5.60;;;7.30;99.90;;;;;;5073400;28;20132;-68
2024/01/23 05:48:22;;;;;;;35.92;5.30;;;7.20;99.90;;;;;;5062690;28;20055;-67
2024/01/23 05:50:48;;;;;;;34.08;5.18;;;7.20;99.90;;;;;;5056869;28;20493;-67
2024/01/23 05:53:14;;;;;;;33.50;5.40;;;7.20;99.90;;;;;;5040264;28;20947;-67
2024/01/23 05:55:39;;;;;;;33.25;4.43;;;7.10;99.90;;;;;;5039697;28;20043;-67
2024/01/23 05:58:05;;;;;;;34.88;5.25;;;7.00;99.90;;;;;;5059552;28;20130;-67
2024/01/23 06:00:31;;;;;;;38.00;4.88;;;6.90;99.90;;;;;;5073538;28;20074;-68
2024/01/23 06:02:58;;;;;;;39.75;6.22;;;6.80;99.90;;;;;;5073014;28;20050;-67
2024/01/23 06:05:24;;;;;;;40.67;5.88;;;6.70;99.90;;;;;;5055939;28;20453;-68
2024/01/23 06:07:51;;;;;;;39.17;6.22;;;6.60;99.90;;;;;;5091060;28;20047;-67
2024/01/23 06:10:17;;;;;;;38.47;5.72;;;6.60;99.90;;;;;;5042583;28;20035;-68
2024/01/23 06:12:43;;;;;;;43.97;6.32;;;6.50;99.90;;;;;;5072584;28;20035;-67
2024/01/23 06:15:14;;;;;;;39.35;5.97;;;6.40;99.90;;;;;;5073081;28;20047;-68
2024/01/23 06:17:40;;;;;;;36.47;5.05;;;6.30;99.90;;;;;;5062934;28;20108;-67
2024/01/23 06:20:12;;;;;;;43.55;6.20;;;6.30;99.90;;;;;;5072739;28;20148;-67
2024/01/23 06:22:39;;;;;;;35.30;4.97;;;6.20;99.90;;;;;;5056272;28;20039;-67
2024/01/23 06:25:15;;;;;;;43.95;5.72;;;6.20;99.90;;;;;;5056223;28;20461;-68
2024/01/23 06:27:42;;;;;;;47.90;7.05;;;6.20;99.90;;;;;;5088992;28;20326;-67
2024/01/23 06:30:11;;;;;;;34.88;4.63;;;6.20;99.90;;;;;;5073418;28;20670;-68
2024/01/23 06:32:38;;;;;;;37.08;5.05;;;6.10;99.90;;;;;;5056130;28;20044;-67
2024/01/23 06:35:05;;;;;;;46.40;6.05;;;6.10;99.90;;;;;;5042201;28;20063;-68
2024/01/23 06:37:30;;;;;;;52.17;7.15;;;6.10;99.90;;;;;;5043905;28;20043;-68
2024/01/23 06:39:56;;;;;;;53.65;6.70;;;6.00;99.90;;;;;;5072448;28;20584;-67
2024/01/23 06:42:22;;;;;;;38.13;5.60;;;6.10;99.90;;;;;;5059323;28;20047;-68
2024/01/23 06:44:48;;;;;;;48.88;6.95;;;6.00;99.90;;;;;;5105411;27;20047;-68
2024/01/23 06:47:13;;;;;;;46.35;6.68;;;6.00;99.90;;;;;;5071941;28;20055;-67
2024/01/23 06:49:39;;;;;;;41.65;6.32;;;6.00;99.90;;;;;;5072331;28;20089;-68
2024/01/23 06:52:05;;;;;;;43.38;5.55;;;6.10;99.90;;;;;;5055476;28;20040;-67
2024/01/23 06:54:30;;;;;;;46.80;6.82;;;6.00;99.90;;;;;;5071498;28;20794;-68
2024/01/23 06:56:56;;;;;;;42.53;6.70;;;6.00;99.90;;;;;;5056251;28;20487;-67
2024/01/23 06:59:22;;;;;;;51.72;6.72;;;6.00;99.90;;;;;;5072668;28;20263;-67
2024/01/23 07:01:48;;;;;;;45.13;6.25;;;6.00;99.90;;;;;;5090825;28;20324;-67
2024/01/23 07:04:14;;;;;;;49.47;7.63;;;5.90;99.90;;;;;;5055788;28;20035;-67
2024/01/23 07:06:39;;;;;;;45.67;6.60;;;5.90;99.90;;;;;;5055366;28;20512;-68
2024/01/23 07:09:05;;;;;;;49.38;7.40;;;5.90;99.90;;;;;;5043150;28;20393;-68
2024/01/23 07:11:31;;;;;;;37.55;5.55;;;5.90;99.90;;;;;;5055537;28;20035;-68
2024/01/23 07:13:57;;;;;;;35.53;5.55;;;5.90;99.90;;;;;;5071292;28;20245;-67
2024/01/23 07:16:23;;;;;;;50.50;6.93;;;5.90;99.90;;;;;;5055431;28;20040;-68
2024/01/23 07:18:48;;;;;;;42.17;5.88;;;5.80;99.90;;;;;;5071874;28;20043;-67
2024/01/23 07:21:14;;;;;;;54.83;6.50;;;5.80;99.90;;;;;;5057243;28;20032;-67
2024/01/23 07:23:40;;;;;;;55.55;6.20;;;5.80;99.90;;;;;;5071722;28;20088;-68
2024/01/23 07:26:06;;;;;;;56.30;7.65;;;5.80;99.90;;;;;;5043496;28;20251;-68
2024/01/23 07:28:32;;;;;;;58.03;8.48;;;5.80;99.90;;;;;;5072293;28;20043;-67
2024/01/23 07:30:58;;;;;;;51.65;6.25;;;5.70;99.90;;;;;;5058469;28;20038;-68
2024/01/23 07:33:24;;;;;;;53.10;6.78;;;5.70;99.90;;;;;;5071652;28;20450;-67
2024/01/23 07:35:53;;;;;;;46.25;6.53;;;5.70;99.90;;;;;;5055827;28;20412;-67
2024/01/23 07:38:18;;;;;;;50.45;5.93;;;5.60;99.90;;;;;;5055594;28;20043;-67
2024/01/23 07:40:44;;;;;;;50.22;6.38;;;5.70;99.90;;;;;;5057896;28;20580;-68
2024/01/23 07:43:10;;;;;;;49.13;5.93;;;5.70;99.90;;;;;;5054421;28;20043;-68
2024/01/23 07:45:37;;;;;;;46.60;6.35;;;5.70;99.90;;;;;;5058862;28;20063;-67
2024/01/23 07:48:03;;;;;;;54.45;7.47;;;5.70;99.90;;;;;;5054044;28;20157;-67
2024/01/23 07:50:29;;;;;;;45.58;7.30;;;5.60;99.90;;;;;;5057520;28;20032;-69
2024/01/23 07:52:55;;;;;;;53.08;6.38;;;5.60;99.90;;;;;;5053150;28;20112;-68
2024/01/23 07:55:22;;;;;;;45.25;5.80;;;5.70;99.90;;;;;;5052743;28;20032;-68
2024/01/23 07:57:48;;;;;;;42.25;5.28;;;5.60;99.90;;;;;;5069779;28;20050;-68
2024/01/23 08:00:18;;;;;;;62.08;8.32;;;5.70;99.90;;;;;;5052891;28;20079;-68
2024/01/23 08:02:45;;;;;;;44.55;6.22;;;5.70;99.90;;;;;;5053727;28;20090;-69
2024/01/23 08:05:11;;;;;;;61.42;7.95;;;5.70;99.90;;;;;;5053168;28;20564;-68
2024/01/23 08:07:39;;;;;;;42.50;6.47;;;5.70;99.90;;;;;;5070425;28;20043;-68
2024/01/23 08:10:06;;;;;;;52.35;7.53;;;5.70;99.90;;;;;;5056511;28;20044;-68
2024/01/23 08:12:32;;;;;;;50.47;7.40;;;5.60;99.90;;;;;;5056709;28;20075;-68
2024/01/23 08:14:58;;;;;;;60.00;7.82;;;5.60;99.90;;;;;;5056568;28;20123;-68
2024/01/23 08:17:24;;;;;;;53.85;7.75;;;5.70;99.90;;;;;;5052722;28;20052;-68
2024/01/23 08:19:50;;;;;;;66.65;6.72;;;5.70;99.90;;;;;;5056274;28;20156;-68
2024/01/23 08:22:16;;;;;;;56.08;7.90;;;5.70;99.90;;;;;;5052474;28;20619;-68
2024/01/23 08:24:42;;;;;;;54.80;7.50;;;5.80;99.90;;;;;;5035892;28;20048;-68
2024/01/23 08:27:08;;;;;;;52.95;7.00;;;5.80;99.90;;;;;;5051656;28;20544;-68
2024/01/23 08:29:34;;;;;;;48.45;6.40;;;5.80;99.90;;;;;;5035652;28;20224;-67
2024/01/23 08:32:00;;;;;;;48.38;6.93;;;5.90;99.90;;;;;;5069694;28;20351;-68
2024/01/23 08:34:26;;;;;;;39.83;5.90;;;5.80;99.90;;;;;;5071976;28;20040;-68
2024/01/23 08:36:52;;;;;;;53.08;7.30;;;5.90;99.90;;;;;;5040096;28;20235;-68
2024/01/23 08:39:18;;;;;;;43.20;6.07;;;5.90;99.90;;;;;;5055973;28;20067;-68
2024/01/23 08:41:44;;;;;;;50.97;7.25;;;6.00;99.90;;;;;;5072356;28;20125;-68
2024/01/23 08:44:10;;;;;;;52.25;7.43;;;5.90;99.90;;;;;;5024318;28;20053;-68
2024/01/23 08:46:36;;;;;;;52.88;7.95;;;6.00;99.90;;;;;;5092733;28;20051;-71
2024/01/23 08:49:04;;;;;;;48.65;7.32;;;6.10;99.90;;;;;;5063206;28;20159;-68
2024/01/23 08:51:30;;;;;;;59.78;7.97;;;6.10;99.90;;;;;;5058488;28;20031;-69
2024/01/23 08:53:56;;;;;;;48.00;6.45;;;6.20;99.90;;;;;;5058230;28;20136;-69
2024/01/23 08:56:23;;;;;;;53.22;7.03;;;6.20;99.90;;;;;;5057342;28;20127;-68
2024/01/23 08:58:52;;;;;;;57.72;8.57;;;6.30;99.90;;;;;;5075491;28;20191;-68
2024/01/23 09:01:20;;;;;;;48.75;7.25;;;6.30;99.90;;;;;;5074976;28;20051;-68
2024/01/23 09:03:46;;;;;;;48.05;6.90;;;6.40;99.90;;;;;;5058767;28;20047;-68
2024/01/23 09:06:13;;;;;;;44.88;6.18;;;6.40;99.90;;;;;;5041501;28;20119;-68
2024/01/23 09:08:44;;;;;;;47.13;6.35;;;6.40;99.90;;;;;;5091934;28;20503;-68
2024/01/23 09:11:11;;;;;;;55.17;8.18;;;6.50;99.90;;;;;;5074401;28;20044;-67
2024/01/23 09:13:38;;;;;;;46.95;5.38;;;6.50;99.90;;;;;;5074569;28;20047;-67
2024/01/23 09:16:04;;;;;;;54.17;6.75;;;6.60;99.90;;;;;;5073812;28;20039;-68
2024/01/23 09:18:30;;;;;;;49.65;7.00;;;6.60;99.90;;;;;;5075174;28;20047;-68
2024/01/23 09:20:58;;;;;;;37.33;5.47;;;6.70;99.90;;;;;;5075220;28;20051;-68
2024/01/23 09:23:24;;;;;;;51.80;6.82;;;6.70;99.90;;;;;;5044990;28;20126;-68
2024/01/23 09:25:50;;;;;;;54.50;7.28;;;6.70;99.90;;;;;;5075658;28;20040;-67
2024/01/23 09:28:16;;;;;;;53.92;7.60;;;6.80;99.90;;;;;;5042025;28;20039;-68
2024/01/23 09:30:43;;;;;;;41.88;6.88;;;7.00;99.90;;;;;;5075355;28;20531;-68
2024/01/23 09:33:12;;;;;;;56.30;8.25;;;7.00;99.90;;;;;;5075646;28;20397;-67
2024/01/23 09:35:38;;;;;;;52.40;7.28;;;7.10;99.90;;;;;;5058338;28;20520;-68
2024/01/23 09:38:03;;;;;;;46.58;6.30;;;7.20;99.90;;;;;;5044991;28;20039;-66
2024/01/23 09:40:30;;;;;;;54.53;7.40;;;7.20;99.90;;;;;;5058564;28;20288;-67
2024/01/23 09:42:57;;;;;;;50.05;6.97;;;7.30;99.90;;;;;;5074867;28;20584;-66
2024/01/23 09:45:28;;;;;;;44.75;6.80;;;7.20;99.90;;;;;;5075488;28;20561;-67
2024/01/23 09:47:55;;;;;;;40.40;6.60;;;7.30;99.90;;;;;;5075369;28;20054;-68
2024/01/23 09:50:26;;;;;;;44.78;6.65;;;7.30;99.90;;;;;;5093619;28;20086;-68
2024/01/23 09:52:52;;;;;;;47.33;7.15;;;7.40;99.90;;;;;;5108299;27;20047;-68
2024/01/23 09:55:18;;;;;;;48.00;6.88;;;7.50;99.90;;;;;;5058105;28;20034;-67
2024/01/23 09:57:45;;;;;;;45.72;6.15;;;7.60;99.90;;;;;;5058876;28;20245;-66
2024/01/23 10:00:14;;;;;;;39.70;6.07;;;7.60;99.90;;;;;;5075233;28;20039;-68
2024/01/23 10:02:40;;;;;;;42.25;5.45;;;7.70;99.90;;;;;;5057224;28;20050;-68
2024/01/23 10:05:16;;;;;;;42.25;6.75;;;7.70;99.90;;;;;;5074695;28;20039;-67
2024/01/23 10:07:42;;;;;;;45.10;6.65;;;7.80;99.90;;;;;;5074607;28;20463;-68
2024/01/23 10:10:17;;;;;;;38.25;6.00;;;7.80;99.90;;;;;;5075187;28;20130;-68
2024/01/23 10:12:48;;;;;;;44.25;7.45;;;7.90;99.90;;;;;;5074161;28;20252;-68
2024/01/23 10:15:17;;;;;;;51.25;6.93;;;8.00;99.90;;;;;;5057444;28;20306;-68
2024/01/23 10:17:45;;;;;;;42.20;6.80;;;8.00;99.90;;;;;;5078039;27;20040;-68
2024/01/23 10:20:12;;;;;;;35.70;6.10;;;8.00;99.90;;;;;;5074393;28;20274;-68
2024/01/23 10:22:38;;;;;;;52.67;7.05;;;8.10;99.90;;;;;;5076987;27;20452;-68
2024/01/23 10:25:11;;;;;;;46.83;6.35;;;8.30;99.90;;;;;;5074652;28;20536;-68
2024/01/23 10:27:37;;;;;;;47.30;7.57;;;8.70;99.90;;;;;;5074050;28;20101;-68
2024/01/23 10:30:04;;;;;;;36.65;6.50;;;8.90;99.90;;;;;;5041080;28;20367;-68
2024/01/23 10:32:30;;;;;;;43.80;7.05;;;9.00;99.90;;;;;;5056982;28;20745;-68
2024/01/23 10:34:56;;;;;;;40.17;7.13;;;9.30;99.90;;;;;;5074198;28;20047;-68
2024/01/23 10:37:21;;;;;;;37.58;6.65;;;9.40;99.90;;;;;;5092359;28;20109;-67
2024/01/23 10:39:51;;;;;;;47.95;7.25;;;9.40;99.90;;;;;;5074065;28;20149;-68
2024/01/23 10:42:20;;;;;;;37.08;5.53;;;9.30;99.90;;;;;;5073578;28;20042;-68
2024/01/23 10:44:50;;;;;;;49.00;7.15;;;9.30;99.90;;;;;;5104095;27;20186;-69
2024/01/23 10:47:17;;;;;;;42.00;6.53;;;9.20;99.90;;;;;;5053274;28;20105;-68
2024/01/23 10:49:44;;;;;;;39.33;6.35;;;9.20;99.90;;;;;;5070307;28;20044;-68
2024/01/23 10:52:16;;;;;;;42.28;6.60;;;9.10;99.90;;;;;;5053337;28;20036;-68
2024/01/23 10:54:49;;;;;;;35.05;5.93;;;9.30;99.90;;;;;;5038286;28;20064;-68
2024/01/23 10:57:24;;;;;;;37.85;6.72;;;9.40;99.90;;;;;;5032989;28;20044;-68
2024/01/23 10:59:51;;;;;;;42.10;6.88;;;9.50;99.90;;;;;;5070733;28;20371;-68
2024/01/23 11:02:23;;;;;;;42.47;6.07;;;9.70;99.90;;;;;;5054772;28;20050;-68
2024/01/23 11:04:51;;;;;;;41.88;6.80;;;9.80;99.90;;;;;;5052844;28;20044;-68
2024/01/23 11:07:52;;;;;;;44.75;6.43;;;9.90;99.90;;;;;;5036435;28;20476;-69
2024/01/23 11:10:33;;;;;;;33.60;6.05;;;10.20;99.90;;;;;;5069721;28;20042;-69
2024/01/23 11:13:35;;;;;;;41.20;6.80;;;10.30;99.90;;;;;;5069539;28;20040;-69
2024/01/23 11:16:06;;;;;;;36.67;6.22;;;10.40;99.90;;;;;;5052377;28;20092;-69
2024/01/23 11:18:33;;;;;;;40.90;6.15;;;10.60;99.90;;;;;;5052379;28;20032;-68
2024/01/23 11:21:08;;;;;;;33.30;5.82;;;10.50;99.90;;;;;;5071582;28;20698;-69
2024/01/23 11:23:45;;;;;;;27.95;5.18;;;10.40;99.90;;;;;;5069199;28;20052;-69
2024/01/23 11:26:19;;;;;;;39.67;6.22;;;10.40;99.90;;;;;;5052275;28;20486;-69
2024/01/23 11:29:04;;;;;;;42.05;6.38;;;10.40;99.90;;;;;;5052223;28;20552;-69
2024/01/23 11:31:40;;;;;;;35.15;5.07;;;10.10;99.90;;;;;;5069956;28;20047;-69
2024/01/23 11:34:31;;;;;;;43.45;6.40;;;10.50;99.90;;;;;;5069196;28;20234;-68
2024/01/23 11:36:57;;;;;;;39.67;6.22;;;10.40;99.90;;;;;;5059469;28;20433;-68
2024/01/23 11:39:25;;;;;;;38.70;6.32;;;10.50;99.90;;;;;;5052921;28;20434;-69
2024/01/23 11:41:52;;;;;;;33.83;5.60;;;10.50;99.90;;;;;;5069931;28;20040;-68
2024/01/23 11:44:19;;;;;;;29.52;4.65;;;10.10;99.90;;;;;;5068990;28;20077;-68
2024/01/23 11:46:49;;;;;;;35.10;6.05;;;9.80;99.90;;;;;;5069700;28;20048;-69
2024/01/23 11:49:18;;;;;;;33.03;5.75;;;9.90;99.90;;;;;;5052937;28;20422;-68
2024/01/23 11:51:44;;;;;;;46.70;6.90;;;10.10;99.90;;;;;;5052820;28;20044;-68
2024/01/23 11:54:11;;;;;;;40.15;6.18;;;10.00;99.90;;;;;;5052944;28;20354;-69
2024/01/23 11:56:37;;;;;;;33.63;5.38;;;10.10;99.90;;;;;;5052564;28;20047;-68
2024/01/23 11:59:03;;;;;;;41.70;5.97;;;10.00;99.90;;;;;;5056997;28;20070;-68
2024/01/23 12:01:30;;;;;;;43.42;6.70;;;9.90;99.90;;;;;;5053509;28;20040;-69
2024/01/23 12:03:56;;;;;;;38.95;6.10;;;10.00;99.90;;;;;;5053633;28;20048;-68
2024/01/23 12:06:25;;;;;;;30.45;5.05;;;10.00;99.90;;;;;;5071071;28;20155;-68
2024/01/23 12:08:51;;;;;;;35.25;5.45;;;10.10;99.90;;;;;;5073497;28;20040;-68
2024/01/23 12:11:17;;;;;;;37.65;5.32;;;10.00;99.90;;;;;;5056883;28;20499;-68
2024/01/23 12:13:47;;;;;;;33.20;5.18;;;9.90;99.90;;;;;;5039658;28;20065;-68
2024/01/23 12:16:14;;;;;;;33.60;5.65;;;9.80;99.90;;;;;;5029383;28;20624;-70
2024/01/23 12:18:40;;;;;;;36.80;5.40;;;10.00;99.90;;;;;;5073651;28;20368;-69
2024/01/23 12:21:06;;;;;;;31.10;5.95;;;10.20;99.90;;;;;;5055643;28;20559;-68
2024/01/23 12:23:33;;;;;;;29.70;5.28;;;10.20;99.90;;;;;;5038980;28;20062;-68
2024/01/23 12:26:03;;;;;;;33.42;5.53;;;10.60;99.90;;;;;;5073594;28;20473;-68
2024/01/23 12:28:32;;;;;;;35.40;5.68;;;10.70;99.90;;;;;;5073674;28;20752;-68
2024/01/23 12:30:58;;;;;;;30.90;5.15;;;10.70;99.90;;;;;;5040820;28;20586;-68
2024/01/23 12:33:25;;;;;;;24.55;3.90;;;10.30;99.90;;;;;;5073102;28;20273;-68
2024/01/23 12:35:52;;;;;;;28.48;4.85;;;9.90;99.90;;;;;;5055860;28;20075;-68
2024/01/23 12:38:22;;;;;;;31.98;4.80;;;9.70;99.90;;;;;;5058481;28;20039;-68
2024/01/23 12:40:48;;;;;;;31.48;4.72;;;10.10;99.90;;;;;;5059444;28;20109;-68
2024/01/23 12:43:16;;;;;;;23.42;3.28;;;10.50;99.90;;;;;;5076157;28;20044;-66
2024/01/23 12:45:42;;;;;;;35.03;5.05;;;10.30;99.90;;;;;;5058296;28;20051;-66